Torm Republican — OYNE2 — position and weather

sailwx.info

Track history (hours):
 
Tides and Currents Weather Stations Pressure Air Temp Water Temp Dewpoint Dewpoint Depression Visibility Wind Speed Wind Dir Waves Ship Positions

Torm Republican

Last reported at 2017-Sep-09 09:16 UTC. Time now 2017-Sep-20 20:17 UTC.
Position N 49°44' W 004°26'.
Warning: this ship's position is 11 days out of date.

Length 183 m; draft 11.5 m.

Type: Tanker. MMSI: 220560000.

Date/timePositionNaut miles runAvg speedWind from/ knotsBaromVisibWave heightAir tempDewpointWater temp
2017-Sep-09 09:16N 49°44' W 004°26'310.9
2017-Sep-09 08:59N 49°45' W 004°22'810.8
2017-Sep-09 08:17N 49°48' W 004°11'310.4
2017-Sep-09 08:01N 49°48' W 004°07'510.4
2017-Sep-09 07:30N 49°49' W 003°59'510.4
2017-Sep-09 07:01N 49°50' W 003°51'510.6
2017-Sep-09 06:31N 49°52' W 003°43'510.9
2017-Sep-09 06:01N 49°53' W 003°35'611.6
2017-Sep-09 05:30N 49°55' W 003°26'612.2
2017-Sep-09 05:01N 49°57' W 003°17'713.1
2017-Sep-09 04:30N 49°59' W 003°07'713.9
2017-Sep-09 04:01N 50°00' W 002°57'4214.9
2017-Sep-09 01:11N 50°12' W 001°54'313.3
2017-Sep-09 00:58N 50°12' W 001°49'1012.3
2017-Sep-09 00:10N 50°15' W 001°34'211.3
2017-Sep-09 00:00N 50°16' W 001°32'510.8
2017-Sep-08 23:30N 50°17' W 001°24'610.0
2017-Sep-08 22:55N 50°19' W 001°15'4 9.3
2017-Sep-08 22:30N 50°20' W 001°09'4 8.8
2017-Sep-08 22:00N 50°21' W 001°02'4 8.6
2017-Sep-08 21:30N 50°22' W 000°56'4 8.5
2017-Sep-08 21:00N 50°23' W 000°49'6 9.1
2017-Sep-08 20:23N 50°25' W 000°41'610.1
2017-Sep-08 19:44N 50°27' W 000°31'310.9
2017-Sep-08 19:30N 50°28' W 000°28'611.3
2017-Sep-08 19:00N 50°28' W 000°19'611.8
2017-Sep-08 18:30N 50°30' W 000°10'612.3
2017-Sep-08 18:00N 50°32' W 000°00'612.6
2017-Sep-08 17:30N 50°33' E 000°09'612.5
2017-Sep-08 17:00N 50°35' E 000°19'612.4
2017-Sep-08 16:30N 50°36' E 000°28'611.9
2017-Sep-08 16:00N 50°39' E 000°37'611.6
2017-Sep-08 15:30N 50°42' E 000°44'611.1
2017-Sep-08 15:00N 50°45' E 000°51'510.5
2017-Sep-08 14:30N 50°48' E 000°58'5 9.7
2017-Sep-08 14:00N 50°50' E 001°05'6 9.3
2017-Sep-08 13:23N 50°54' E 001°12'4 9.2
2017-Sep-08 13:00N 50°57' E 001°15'4 8.7
2017-Sep-08 12:30N 51°00' E 001°20'4 8.9
2017-Sep-08 12:00N 51°03' E 001°25'5 9.4
2017-Sep-08 11:30N 51°06' E 001°31'510.7
2017-Sep-08 11:00N 51°09' E 001°38'612.6
2017-Sep-08 10:31N 51°13' E 001°45'714.4
2017-Sep-08 10:00N 51°20' E 001°50'714.7
2017-Sep-08 09:30N 51°27' E 001°55'714.4
2017-Sep-08 09:00N 51°32' E 002°03'714.0
2017-Sep-08 08:30N 51°37' E 002°10'713.7
2017-Sep-08 07:59N 51°42' E 002°18'8110.3
2017-Sep-08 00:08N 52°31' E 004°04'212.0
2017-Sep-08 00:00N 52°31' E 004°06'611.9
2017-Sep-07 23:30N 52°30' E 004°16'510.7
2017-Sep-07 23:00N 52°29' E 004°24'4 8.5
2017-Sep-07 22:31N 52°28' E 004°31'3 6.5
2017-Sep-07 22:01N 52°28' E 004°37'0 0.1
2017-Sep-07 21:31N 52°28' E 004°37'2 3.6
2017-Sep-07 21:00N 52°28' E 004°40'3 6.2
2017-Sep-07 20:30N 52°26' E 004°44'1 0.8
2017-Sep-07 18:46N 52°25' E 004°45'0 0.0
2017-Sep-07 15:21N 52°25' E 004°45'  
2017-Sep-03 07:46N 52°25' E 004°45'0 0.0
2017-Sep-03 07:31N 52°25' E 004°45'0 0.0
2017-Sep-03 07:01N 52°25' E 004°45'0 1.0
2017-Sep-03 06:30N 52°25' E 004°45'2 4.1
2017-Sep-03 06:00N 52°26' E 004°42'4 7.1
2017-Sep-03 05:31N 52°28' E 004°37'0 0.8
2017-Sep-03 05:01N 52°28' E 004°36'1 2.4
2017-Sep-03 04:31N 52°28' E 004°34'4 8.2
2017-Sep-03 04:01N 52°28' E 004°27'4 8.8
2017-Sep-03 03:30N 52°28' E 004°20'4 8.0
2017-Sep-03 03:00N 52°29' E 004°14'611.7
2017-Sep-03 02:30N 52°28' E 004°04'510.2
2017-Sep-03 02:00N 52°26' E 003°57'0 0.1
2017-Sep-03 01:20N 52°26' E 003°57'0 0.0
2017-Sep-03 00:59N 52°26' E 003°57'0 0.0
2017-Sep-03 00:29N 52°26' E 003°57'0 0.0
2017-Sep-02 23:11N 52°26' E 003°57'0 0.1
2017-Sep-02 22:59N 52°26' E 003°57'0 0.2
2017-Sep-02 22:26N 52°26' E 003°57'0 0.1
2017-Sep-02 21:56N 52°26' E 003°57'0 0.1
2017-Sep-02 21:29N 52°26' E 003°56'0 0.0
2017-Sep-02 20:59N 52°26' E 003°56'0 0.0
2017-Sep-02 20:29N 52°26' E 003°56'0 0.0
2017-Sep-02 19:59N 52°26' E 003°56'0 0.0
2017-Sep-02 19:26N 52°26' E 003°56'0 0.0
2017-Sep-02 18:59N 52°26' E 003°56'0 0.0
2017-Sep-02 18:29N 52°26' E 003°56'0 0.0
2017-Sep-02 17:59N 52°26' E 003°56'0 0.0
2017-Sep-02 17:29N 52°26' E 003°56'0 0.0
2017-Sep-02 16:59N 52°26' E 003°57'0 0.0
2017-Sep-02 16:29N 52°26' E 003°57'0 0.1
2017-Sep-02 15:56N 52°26' E 003°57'0 0.1
2017-Sep-02 15:23N 52°26' E 003°57'0 0.1
2017-Sep-02 14:50N 52°26' E 003°57'0 0.0
2017-Sep-02 11:05N 52°26' E 003°57'0 0.3
2017-Sep-02 10:53N 52°26' E 003°57'0 0.3
2017-Sep-02 10:29N 52°26' E 003°56'0 0.1
2017-Sep-02 09:56N 52°26' E 003°56'0 0.0
2017-Sep-02 09:29N 52°26' E 003°56'0 0.1
2017-Sep-02 08:59N 52°26' E 003°57'0 0.0
2017-Sep-02 08:26N 52°26' E 003°57'0 0.0
2017-Sep-02 07:59N 52°26' E 003°57'0 0.0
2017-Sep-02 07:26N 52°26' E 003°56'0 0.1
2017-Sep-02 06:56N 52°26' E 003°57'0 0.0
2017-Sep-02 06:29N 52°26' E 003°57'0 0.0
2017-Sep-02 05:59N 52°26' E 003°57'0 0.0
2017-Sep-02 05:29N 52°26' E 003°57'0 0.1
2017-Sep-02 04:59N 52°26' E 003°57'0 0.1
2017-Sep-02 04:23N 52°26' E 003°57'0 0.2
2017-Sep-02 03:56N 52°26' E 003°57'0 0.2
2017-Sep-02 03:29N 52°26' E 003°57'0 0.1
2017-Sep-02 02:59N 52°26' E 003°57'0 0.0
2017-Sep-02 02:29N 52°26' E 003°57'0 0.0
2017-Sep-02 01:56N 52°26' E 003°57'0 0.0
2017-Sep-02 01:23N 52°26' E 003°57'0 0.0
2017-Sep-02 00:26N 52°26' E 003°57'0 0.0
2017-Sep-01 23:59N 52°26' E 003°57'0 0.0
2017-Sep-01 22:32N 52°26' E 003°57'0 0.2
2017-Sep-01 22:26N 52°26' E 003°57'0 0.3
2017-Sep-01 21:59N 52°26' E 003°57'0 0.1
2017-Sep-01 21:23N 52°26' E 003°56'0 0.0
2017-Sep-01 20:59N 52°26' E 003°56'0 0.0
2017-Sep-01 20:23N 52°26' E 003°56'0 0.0
2017-Sep-01 19:59N 52°26' E 003°56'0 0.0
2017-Sep-01 19:29N 52°26' E 003°56'0 0.0
2017-Sep-01 18:59N 52°26' E 003°56'0 0.0
2017-Sep-01 18:29N 52°26' E 003°56'0 0.0
2017-Sep-01 17:56N 52°26' E 003°56'0 0.0
2017-Sep-01 17:26N 52°26' E 003°56'0 0.1
2017-Sep-01 16:59N 52°26' E 003°57'0 0.0
2017-Sep-01 16:29N 52°26' E 003°57'0 0.0
2017-Sep-01 15:56N 52°26' E 003°57'0 0.1
2017-Sep-01 15:11N 52°26' E 003°57'0 0.1
2017-Sep-01 14:41N 52°26' E 003°57'0 0.0
2017-Sep-01 13:31N 52°26' E 003°57'0 0.0
2017-Sep-01 13:07N 52°26' E 003°57'0 0.1
2017-Sep-01 12:13N 52°26' E 003°57'0 0.2
2017-Sep-01 12:00N 52°26' E 003°57'1 2.4
2017-Sep-01 11:30N 52°27' E 003°55'7 9.9
2017-Sep-01 10:49N 52°26' E 003°44'3 9.0
2017-Sep-01 10:28N 52°25' E 003°39'3 7.6
2017-Sep-01 10:01N 52°24' E 003°34'510.5
2017-Sep-01 09:30N 52°25' E 003°25'611.5
2017-Sep-01 08:59N 52°25' E 003°15'611.7
2017-Sep-01 08:30N 52°26' E 003°06'612.7
2017-Sep-01 08:00N 52°26' E 002°55'3610.1
2017-Sep-01 04:28N 51°51' E 002°39'510.5
2017-Sep-01 03:59N 51°47' E 002°36'510.6
2017-Sep-01 03:30N 51°43' E 002°31'710.7
2017-Sep-01 02:53N 51°38' E 002°24'410.8
2017-Sep-01 02:30N 51°34' E 002°20'610.9
2017-Sep-01 02:00N 51°30' E 002°14'611.2
2017-Sep-01 01:30N 51°26' E 002°08'510.9
2017-Sep-01 01:00N 51°21' E 002°08'611.0
2017-Sep-01 00:30N 51°15' E 002°06'611.5
2017-Sep-01 00:00N 51°12' E 001°58'611.9
2017-Aug-31 23:30N 51°09' E 001°50'611.8
2017-Aug-31 23:00N 51°05' E 001°43'510.2
2017-Aug-31 22:30N 51°01' E 001°39'612.0
2017-Aug-31 22:00N 50°56' E 001°32'713.8
2017-Aug-31 21:30N 50°50' E 001°27'813.8
2017-Aug-31 20:54N 50°42' E 001°23'2513.2
2017-Aug-31 19:01N 50°27' E 000°52'013.2
2017-Aug-31 19:00N 50°27' E 000°52'3813.8
2017-Aug-31 16:14N 50°15' W 000°05'314.2
2017-Aug-31 16:00N 50°14' W 000°10'38 4.9
2017-Aug-31 08:16N 49°43' W 000°43'4 5.7
2017-Aug-31 07:34N 49°44' W 000°49'8 1.2
2017-Aug-31 01:20N 49°39' W 000°40'1 2.0
2017-Aug-31 00:45N 49°40' W 000°41'1 1.9
2017-Aug-31 00:26N 49°40' W 000°42'1 1.5
2017-Aug-30 23:58N 49°40' W 000°43'6 4.3
2017-Aug-30 22:29N 49°47' W 000°40'1 0.6
2017-Aug-30 21:08N 49°46' W 000°41'5 1.9
2017-Aug-30 18:41N 49°42' W 000°38'0 1.2
2017-Aug-30 18:30N 49°42' W 000°38'3 1.1
2017-Aug-30 15:54N 49°45' W 000°39'1 1.9
2017-Aug-30 15:30N 49°46' W 000°40'1 2.1
2017-Aug-30 15:00N 49°45' W 000°42'6 3.8
2017-Aug-30 13:23N 49°39' W 000°45'1 1.9
2017-Aug-30 12:59N 49°40' W 000°45'2 0.8
2017-Aug-30 09:55N 49°38' W 000°43'  
Track history (hours):
 
Tides and Currents Weather Stations Pressure Air Temp Water Temp Dewpoint Dewpoint Depression Visibility Wind Speed Wind Dir Waves Ship Positions

Torm Republican

Last reported at 2017-Sep-09 09:16 UTC. Time now 2017-Sep-20 20:17 UTC.
Position N 49°44' W 004°26'.
Warning: this ship's position is 11 days out of date.

Length 183 m; draft 11.5 m.

Type: Tanker. MMSI: 220560000.

Date/timePositionNaut miles runAvg speedWind from/ knotsBaromVisibWave heightAir tempDewpointWater temp
2017-Sep-09 09:16N 49°44' W 004°26'310.9
2017-Sep-09 08:59N 49°45' W 004°22'810.8
2017-Sep-09 08:17N 49°48' W 004°11'310.4
2017-Sep-09 08:01N 49°48' W 004°07'510.4
2017-Sep-09 07:30N 49°49' W 003°59'510.4
2017-Sep-09 07:01N 49°50' W 003°51'510.6
2017-Sep-09 06:31N 49°52' W 003°43'510.9
2017-Sep-09 06:01N 49°53' W 003°35'611.6
2017-Sep-09 05:30N 49°55' W 003°26'612.2
2017-Sep-09 05:01N 49°57' W 003°17'713.1
2017-Sep-09 04:30N 49°59' W 003°07'713.9
2017-Sep-09 04:01N 50°00' W 002°57'4214.9
2017-Sep-09 01:11N 50°12' W 001°54'313.3
2017-Sep-09 00:58N 50°12' W 001°49'1012.3
2017-Sep-09 00:10N 50°15' W 001°34'211.3
2017-Sep-09 00:00N 50°16' W 001°32'510.8
2017-Sep-08 23:30N 50°17' W 001°24'610.0
2017-Sep-08 22:55N 50°19' W 001°15'4 9.3
2017-Sep-08 22:30N 50°20' W 001°09'4 8.8
2017-Sep-08 22:00N 50°21' W 001°02'4 8.6
2017-Sep-08 21:30N 50°22' W 000°56'4 8.5
2017-Sep-08 21:00N 50°23' W 000°49'6 9.1
2017-Sep-08 20:23N 50°25' W 000°41'610.1
2017-Sep-08 19:44N 50°27' W 000°31'310.9
2017-Sep-08 19:30N 50°28' W 000°28'611.3
2017-Sep-08 19:00N 50°28' W 000°19'611.8
2017-Sep-08 18:30N 50°30' W 000°10'612.3
2017-Sep-08 18:00N 50°32' W 000°00'612.6
2017-Sep-08 17:30N 50°33' E 000°09'612.5
2017-Sep-08 17:00N 50°35' E 000°19'612.4
2017-Sep-08 16:30N 50°36' E 000°28'611.9
2017-Sep-08 16:00N 50°39' E 000°37'611.6
2017-Sep-08 15:30N 50°42' E 000°44'611.1
2017-Sep-08 15:00N 50°45' E 000°51'510.5
2017-Sep-08 14:30N 50°48' E 000°58'5 9.7
2017-Sep-08 14:00N 50°50' E 001°05'6 9.3
2017-Sep-08 13:23N 50°54' E 001°12'4 9.2
2017-Sep-08 13:00N 50°57' E 001°15'4 8.7
2017-Sep-08 12:30N 51°00' E 001°20'4 8.9
2017-Sep-08 12:00N 51°03' E 001°25'5 9.4
2017-Sep-08 11:30N 51°06' E 001°31'510.7
2017-Sep-08 11:00N 51°09' E 001°38'612.6
2017-Sep-08 10:31N 51°13' E 001°45'714.4
2017-Sep-08 10:00N 51°20' E 001°50'714.7
2017-Sep-08 09:30N 51°27' E 001°55'714.4
2017-Sep-08 09:00N 51°32' E 002°03'714.0
2017-Sep-08 08:30N 51°37' E 002°10'713.7
2017-Sep-08 07:59N 51°42' E 002°18'8110.3
2017-Sep-08 00:08N 52°31' E 004°04'212.0
2017-Sep-08 00:00N 52°31' E 004°06'611.9
2017-Sep-07 23:30N 52°30' E 004°16'510.7
2017-Sep-07 23:00N 52°29' E 004°24'4 8.5
2017-Sep-07 22:31N 52°28' E 004°31'3 6.5
2017-Sep-07 22:01N 52°28' E 004°37'0 0.1
2017-Sep-07 21:31N 52°28' E 004°37'2 3.6
2017-Sep-07 21:00N 52°28' E 004°40'3 6.2
2017-Sep-07 20:30N 52°26' E 004°44'1 0.8
2017-Sep-07 18:46N 52°25' E 004°45'0 0.0
2017-Sep-07 15:21N 52°25' E 004°45'  
2017-Sep-03 07:46N 52°25' E 004°45'0 0.0
2017-Sep-03 07:31N 52°25' E 004°45'0 0.0
2017-Sep-03 07:01N 52°25' E 004°45'0 1.0
2017-Sep-03 06:30N 52°25' E 004°45'2 4.1
2017-Sep-03 06:00N 52°26' E 004°42'4 7.1
2017-Sep-03 05:31N 52°28' E 004°37'0 0.8
2017-Sep-03 05:01N 52°28' E 004°36'1 2.4
2017-Sep-03 04:31N 52°28' E 004°34'4 8.2
2017-Sep-03 04:01N 52°28' E 004°27'4 8.8
2017-Sep-03 03:30N 52°28' E 004°20'4 8.0
2017-Sep-03 03:00N 52°29' E 004°14'611.7
2017-Sep-03 02:30N 52°28' E 004°04'510.2
2017-Sep-03 02:00N 52°26' E 003°57'0 0.1
2017-Sep-03 01:20N 52°26' E 003°57'0 0.0
2017-Sep-03 00:59N 52°26' E 003°57'0 0.0
2017-Sep-03 00:29N 52°26' E 003°57'0 0.0
2017-Sep-02 23:11N 52°26' E 003°57'0 0.1
2017-Sep-02 22:59N 52°26' E 003°57'0 0.2
2017-Sep-02 22:26N 52°26' E 003°57'0 0.1
2017-Sep-02 21:56N 52°26' E 003°57'0 0.1
2017-Sep-02 21:29N 52°26' E 003°56'0 0.0
2017-Sep-02 20:59N 52°26' E 003°56'0 0.0
2017-Sep-02 20:29N 52°26' E 003°56'0 0.0
2017-Sep-02 19:59N 52°26' E 003°56'0 0.0
2017-Sep-02 19:26N 52°26' E 003°56'0 0.0
2017-Sep-02 18:59N 52°26' E 003°56'0 0.0
2017-Sep-02 18:29N 52°26' E 003°56'0 0.0
2017-Sep-02 17:59N 52°26' E 003°56'0 0.0
2017-Sep-02 17:29N 52°26' E 003°56'0 0.0
2017-Sep-02 16:59N 52°26' E 003°57'0 0.0
2017-Sep-02 16:29N 52°26' E 003°57'0 0.1
2017-Sep-02 15:56N 52°26' E 003°57'0 0.1
2017-Sep-02 15:23N 52°26' E 003°57'0 0.1
2017-Sep-02 14:50N 52°26' E 003°57'0 0.0
2017-Sep-02 11:05N 52°26' E 003°57'0 0.3
2017-Sep-02 10:53N 52°26' E 003°57'0 0.3
2017-Sep-02 10:29N 52°26' E 003°56'0 0.1
2017-Sep-02 09:56N 52°26' E 003°56'0 0.0
2017-Sep-02 09:29N 52°26' E 003°56'0 0.1
2017-Sep-02 08:59N 52°26' E 003°57'0 0.0
2017-Sep-02 08:26N 52°26' E 003°57'0 0.0
2017-Sep-02 07:59N 52°26' E 003°57'0 0.0
2017-Sep-02 07:26N 52°26' E 003°56'0 0.1
2017-Sep-02 06:56N 52°26' E 003°57'0 0.0
2017-Sep-02 06:29N 52°26' E 003°57'0 0.0
2017-Sep-02 05:59N 52°26' E 003°57'0 0.0
2017-Sep-02 05:29N 52°26' E 003°57'0 0.1
2017-Sep-02 04:59N 52°26' E 003°57'0 0.1
2017-Sep-02 04:23N 52°26' E 003°57'0 0.2
2017-Sep-02 03:56N 52°26' E 003°57'0 0.2
2017-Sep-02 03:29N 52°26' E 003°57'0 0.1
2017-Sep-02 02:59N 52°26' E 003°57'0 0.0
2017-Sep-02 02:29N 52°26' E 003°57'0 0.0
2017-Sep-02 01:56N 52°26' E 003°57'0 0.0
2017-Sep-02 01:23N 52°26' E 003°57'0 0.0
2017-Sep-02 00:26N 52°26' E 003°57'0 0.0
2017-Sep-01 23:59N 52°26' E 003°57'0 0.0
2017-Sep-01 22:32N 52°26' E 003°57'0 0.2
2017-Sep-01 22:26N 52°26' E 003°57'0 0.3
2017-Sep-01 21:59N 52°26' E 003°57'0 0.1
2017-Sep-01 21:23N 52°26' E 003°56'0 0.0
2017-Sep-01 20:59N 52°26' E 003°56'0 0.0
2017-Sep-01 20:23N 52°26' E 003°56'0 0.0
2017-Sep-01 19:59N 52°26' E 003°56'0 0.0
2017-Sep-01 19:29N 52°26' E 003°56'0 0.0
2017-Sep-01 18:59N 52°26' E 003°56'0 0.0
2017-Sep-01 18:29N 52°26' E 003°56'0 0.0
2017-Sep-01 17:56N 52°26' E 003°56'0 0.0
2017-Sep-01 17:26N 52°26' E 003°56'0 0.1
2017-Sep-01 16:59N 52°26' E 003°57'0 0.0
2017-Sep-01 16:29N 52°26' E 003°57'0 0.0
2017-Sep-01 15:56N 52°26' E 003°57'0 0.1
2017-Sep-01 15:11N 52°26' E 003°57'0 0.1
2017-Sep-01 14:41N 52°26' E 003°57'0 0.0
2017-Sep-01 13:31N 52°26' E 003°57'0 0.0
2017-Sep-01 13:07N 52°26' E 003°57'0 0.1
2017-Sep-01 12:13N 52°26' E 003°57'0 0.2
2017-Sep-01 12:00N 52°26' E 003°57'1 2.4
2017-Sep-01 11:30N 52°27' E 003°55'7 9.9
2017-Sep-01 10:49N 52°26' E 003°44'3 9.0
2017-Sep-01 10:28N 52°25' E 003°39'3 7.6
2017-Sep-01 10:01N 52°24' E 003°34'510.5
2017-Sep-01 09:30N 52°25' E 003°25'611.5
2017-Sep-01 08:59N 52°25' E 003°15'611.7
2017-Sep-01 08:30N 52°26' E 003°06'612.7
2017-Sep-01 08:00N 52°26' E 002°55'3610.1
2017-Sep-01 04:28N 51°51' E 002°39'510.5
2017-Sep-01 03:59N 51°47' E 002°36'510.6
2017-Sep-01 03:30N 51°43' E 002°31'710.7
2017-Sep-01 02:53N 51°38' E 002°24'410.8
2017-Sep-01 02:30N 51°34' E 002°20'610.9
2017-Sep-01 02:00N 51°30' E 002°14'611.2
2017-Sep-01 01:30N 51°26' E 002°08'510.9
2017-Sep-01 01:00N 51°21' E 002°08'611.0
2017-Sep-01 00:30N 51°15' E 002°06'611.5
2017-Sep-01 00:00N 51°12' E 001°58'611.9
2017-Aug-31 23:30N 51°09' E 001°50'611.8
2017-Aug-31 23:00N 51°05' E 001°43'510.2
2017-Aug-31 22:30N 51°01' E 001°39'612.0
2017-Aug-31 22:00N 50°56' E 001°32'713.8
2017-Aug-31 21:30N 50°50' E 001°27'813.8
2017-Aug-31 20:54N 50°42' E 001°23'2513.2
2017-Aug-31 19:01N 50°27' E 000°52'013.2
2017-Aug-31 19:00N 50°27' E 000°52'3813.8
2017-Aug-31 16:14N 50°15' W 000°05'314.2
2017-Aug-31 16:00N 50°14' W 000°10'38 4.9
2017-Aug-31 08:16N 49°43' W 000°43'4 5.7
2017-Aug-31 07:34N 49°44' W 000°49'8 1.2
2017-Aug-31 01:20N 49°39' W 000°40'1 2.0
2017-Aug-31 00:45N 49°40' W 000°41'1 1.9
2017-Aug-31 00:26N 49°40' W 000°42'1 1.5
2017-Aug-30 23:58N 49°40' W 000°43'6 4.3
2017-Aug-30 22:29N 49°47' W 000°40'1 0.6
2017-Aug-30 21:08N 49°46' W 000°41'5 1.9
2017-Aug-30 18:41N 49°42' W 000°38'0 1.2
2017-Aug-30 18:30N 49°42' W 000°38'3 1.1
2017-Aug-30 15:54N 49°45' W 000°39'1 1.9
2017-Aug-30 15:30N 49°46' W 000°40'1 2.1
2017-Aug-30 15:00N 49°45' W 000°42'6 3.8
2017-Aug-30 13:23N 49°39' W 000°45'1 1.9
2017-Aug-30 12:59N 49°40' W 000°45'2 0.8
2017-Aug-30 09:55N 49°38' W 000°43'  

Dump ship's entire track history